Marydel, Maryland
Current Conditions -  °F | °C
As of 5:33 AM on Wednesday 22 Oct 2014 (Local Time) from KDOV Reporting Station
Overcast Overcast  
Wind Chill: 55°   Ceiling: 1400
Heat Index: 55°   Visibility: 10mi
Dew Point: 55°   Wind: 12mph
Humidity: 100%   Direction: 330°NNW
Pressure: 29.79"   Gusts: NA
Location:  39.11°N, 75.75°W
Report Text: KDOV 220933Z AUTO 33010KT 10SM FEW008 BKN014 OVC039 13/13 A2979 RMK AO2
Loading
Personal Weather Stations






























Interactive Weather Map
Tropical Storm Tracking
New forecast layout! Learn more

10-Day Weather Forecast

Advertisements
Track Severe Weather on mobile